Nearby METAR Reports

 

EGMC - Southend-On-Sea, United Kingdom
Distance from station: NE 10km
Updated: 06/12/2021 13:20
Light rain, Mostly cloudy
Light rain, Mostly cloudy
 Wind from S
Wind: S 10 mph , 17 km/h
Temperature: 6°C
Wind Chill: 3°C
Dew Point: 5°C
Humidity: 93%
Barometer: 1006 hPa
Summary: Light rain
Clouds: Mostly cloudy
Visibility: 6 miles , 9 km
Cloud details: Few Clouds 274 m
Partly cloudy 488 m
Mostly cloudy 671 m
2021/12/06 13:20 EGMC 061320Z 18009KT 9000 -RA FEW009 SCT016 BKN022 06/05 Q1006
EGLC - London City Airp, United Kingdom
Distance from station: W 37km
Updated: 06/12/2021 13:50
Overcast
Overcast
 Wind from SSW
Wind: SSW 13 mph , 20 km/h
Temperature: 7°C
Wind Chill: 4°C
Dew Point: 4°C
Humidity: 81%
Barometer: 1005 hPa
Clouds: Overcast
Visibility: 6 miles , 10 km
Cloud details: Few Clouds 640 m
Mostly cloudy 1128 m
Overcast 1341 m
2021/12/06 13:50 EGLC 061350Z AUTO 21011KT 9999 FEW021 BKN037 OVC044 07/04 Q1005
EGKB - Biggin Hill, United Kingdom
Distance from station: WSW 45km
Updated: 06/12/2021 13:50
Mostly cloudy
Mostly cloudy
 Wind from SSW
Wind: SSW 24 mph , 39 km/h
Temperature: 5°C
Wind Chill: -1°C
Dew Point: 4°C
Humidity: 93%
Barometer: 1004 hPa
Clouds: Mostly cloudy
Visibility: 6 miles , 10 km
Cloud details: Partly cloudy 427 m
Mostly cloudy 1402 m
2021/12/06 13:50 EGKB 061350Z 20021KT 9999 SCT014 BKN046 05/04 Q1004
 
EGSS - Stansted Airport, United Kingdom
Distance from station: NNW 48km
Updated: 06/12/2021 13:50
Light rain, Mostly cloudy
Light rain, Mostly cloudy
 Wind from S
Wind: S 12 mph , 19 km/h
Temperature: 5°C
Wind Chill: 1°C
Dew Point: 4°C
Humidity: 93%
Barometer: 1004 hPa
Summary: Light rain
Clouds: Mostly cloudy
Visibility: 5 miles , 8 km
Cloud details: Partly cloudy 274 m
Partly cloudy 427 m
Mostly cloudy 549 m
2021/12/06 13:50 EGSS 061350Z AUTO 19010KT 8000 -RA SCT009 SCT014 BKN018 05/04 Q1004
EGKK - London/Gatwick A, United Kingdom
Distance from station: SW 67km
Updated: 06/12/2021 13:50
Light rain, Mostly cloudy
Light rain, Mostly cloudy
 Wind from SSW
Wind: SSW 10 mph , 17 km/h
Temperature: 6°C
Wind Chill: 3°C
Dew Point: 5°C
Humidity: 93%
Barometer: 1005 hPa
Summary: Light rain
Clouds: Mostly cloudy
Visibility: 6 miles , 9 km
Cloud details: Few Clouds 244 m
Partly cloudy 396 m
Mostly cloudy 1219 m
2021/12/06 13:50 EGKK 061350Z 20009KT 9000 -RA FEW008 SCT013 BKN040 06/05 Q1005
EGMD - Lydd Airport, United Kingdom
Distance from station: SSE 67km
Updated: 06/12/2021 13:50
Light rain, Mostly cloudy
Light rain, Mostly cloudy
 Wind from SW
Wind: SW 22 mph , 35 km/h
Temperature: 7°C
Wind Chill: 3°C
Dew Point: 5°C
Humidity: 87%
Barometer: 1007 hPa
Summary: Light rain
Clouds: Mostly cloudy
Visibility: 6 miles , 10 km
Cloud details: Partly cloudy 579 m
Mostly cloudy 914 m
2021/12/06 13:50 EGMD 061350Z 23019KT 9999 -RA SCT019 BKN030 07/05 Q1007 RERA
 
EGWU - Northolt Raf, United Kingdom
Distance from station: W 69km
Updated: 06/12/2021 13:50
Light rain, Mostly cloudy
Light rain, Mostly cloudy
 Wind from W
Wind: W 9 mph , 15 km/h
Temperature: 7°C
Wind Chill: 4°C
Dew Point: 5°C
Humidity: 87%
Barometer: 1004 hPa
Summary: Light rain
Clouds: Mostly cloudy
Visibility: 6 miles , 10 km
Cloud details: Mostly cloudy 335 m
Mostly cloudy 914 m
2021/12/06 13:50 EGWU 061350Z 27008KT 9999 -RA BKN011 BKN030 07/05 Q1004 TEMPO FEW012 RMK GRN TEMPO BLU
EGLL - London/Heathrow, United Kingdom
Distance from station: W 72km
Updated: 06/12/2021 13:50
Light rain, Thunderstorm
Light rain, Thunderstorm
 Wind from SSW
Wind: SSW 16 mph , 26 km/h
Temperature: 7°C
Wind Chill: 3°C
Dew Point: 5°C
Humidity: 87%
Barometer: 1004 hPa
Summary: Light rain
Clouds: Thunderstorm
Visibility: 6 miles , 10 km
Cloud details: Partly cloudy 396 m
Mostly cloudy 975 m
Mostly cloudy 1219 m
2021/12/06 13:50 EGLL 061350Z AUTO 21014KT 9999 -RA SCT013/// BKN032/// BKN040/// //////CB 07/05 Q1004
EGUW - Wattisham Raf, United Kingdom
Distance from station: NNE 72km
Updated: 06/12/2021 13:50
Light rain, Mostly cloudy
Light rain, Mostly cloudy
 Wind from SSW
Wind: SSW 13 mph , 20 km/h
Temperature: 4°C
Wind Chill: -1°C
Dew Point: 4°C
Humidity: 100%
Barometer: 1004 hPa
Summary: Light rain
Clouds: Mostly cloudy
Visibility: 5 miles , 8 km
Cloud details: Partly cloudy 366 m
Mostly cloudy 549 m
2021/12/06 13:50 EGUW 061350Z 20011KT 8000 -RA SCT012 BKN018 04/04 Q1004 NOSIG RMK GRN GRN
 
EGGW - Luton Airport, United Kingdom
Distance from station: WNW 76km
Updated: 06/12/2021 13:50
Light rain, Thunderstorm
Light rain, Thunderstorm
 Wind from SSW
Wind: SSW 15 mph , 24 km/h
Temperature: 5°C
Wind Chill: 1°C
Dew Point: 4°C
Humidity: 93%
Barometer: 1003 hPa
Summary: Light rain
Clouds: Thunderstorm
Visibility: 6 miles , 10 km
Cloud details: Mostly cloudy 213 m
Overcast 396 m
2021/12/06 13:50 EGGW 061350Z AUTO 21013KT 9999 -RA BKN007/// OVC013/// //////CB 05/04 Q1003
EGSC - Cambridge, United Kingdom
Distance from station: NNW 81km
Updated: 06/12/2021 13:50
Light rain, Mostly cloudy
Light rain, Mostly cloudy
 Wind from S
Wind: S 16 mph , 26 km/h
Temperature: 5°C
Wind Chill: 1°C
Dew Point: 4°C
Humidity: 93%
Barometer: 1003 hPa
Summary: Light rain
Clouds: Mostly cloudy
Visibility: 6 miles , 9 km
Cloud details: Few Clouds 244 m
Partly cloudy 457 m
Mostly cloudy 914 m
2021/12/06 13:50 EGSC 061350Z 19014KT 9000 -RA FEW008 SCT015 BKN030 05/04 Q1003